Flight Track Log - Related Links

Times and Time Zones

All times are in EDT time to prevent confusion due to time zone crossing. See the CTL15 flight status page for this flight to view local times or setup timezone preferences in your user account.

Time Position Orientation Groundspeed Altitude Reporting Facility
EDT Latitude Longitude Course Direction KTS MPH feet Rate Location/Type
Mon 07:48:48 PM 39.5903 -84.1925 43° Northeast 148 170 2,400  Level Indianapolis Center
Mon 07:50:13 PM 39.6344 -84.1389 43° Northeast 152 175 3,700 851 Climbing Indianapolis Center
Mon 07:51:09 PM 39.6622 -84.1033 45° Northeast 153 176 4,400 793 Climbing Indianapolis Center
Mon 07:52:14 PM 39.6950 -84.0600 45° Northeast 158 182 5,300 732 Climbing Indianapolis Center
Mon 07:53:12 PM 39.7264 -84.0239 41° Northeast 157 181 5,900 672 Climbing Indianapolis Center
Mon 07:54:10 PM 39.7594 -83.9842 43° Northeast 162 186 6,600 623 Climbing Indianapolis Center
Mon 07:54:58 PM 39.7872 -83.9525 41° Northeast 160 184 7,000 364 Climbing Indianapolis Center
Mon 07:55:16 PM 39.7922 -83.9439 53° Northeast 160 184 7,000  Level Indianapolis Center
Mon 07:55:59 PM 39.8219 -83.9081 43° Northeast 177 204 7,000  Level Indianapolis Center
Mon 07:56:17 PM 39.8281 -83.9003 44° Northeast 167 192 7,000  Level Indianapolis Center
Mon 07:57:12 PM 39.8681 -83.8542 41° Northeast 182 209 7,000  Level Indianapolis Center
Mon 07:58:20 PM 39.9036 -83.8111 43° Northeast 179 206 7,000  Level Indianapolis Center
Mon 07:59:07 PM 39.9372 -83.7678 45° Northeast 182 209 7,000  Level Indianapolis Center
Mon 07:59:22 PM 39.9403 -83.7644 40° Northeast 180 207 7,000 90 Level Indianapolis Center
Mon 08:00:14 PM 39.9767 -83.7183 44° Northeast 185 213 7,100  Climbing Indianapolis Center
Mon 08:01:14 PM 40.0136 -83.6711 44° Northeast 185 213 7,000 -47 Descending Indianapolis Center
Mon 08:02:21 PM 40.0553 -83.6192 44° Northeast 183 211 7,000 -45 Level Indianapolis Center
Mon 08:03:28 PM 40.0969 -83.5686 43° Northeast 184 212 6,900 -164 Descending Indianapolis Center
Mon 08:04:11 PM 40.1239 -83.5378 41° Northeast 187 215 6,700 98 Descending Indianapolis Center
Mon 08:04:29 PM 40.1297 -83.5300 46° Northeast 186 214 7,000 400 Climbing Indianapolis Center
Mon 08:05:11 PM 40.1633 -83.4853 45° Northeast 187 215 7,100 97 Climbing Indianapolis Center
Mon 08:05:31 PM 40.1725 -83.4739 44° Northeast 185 213 7,100  Level Indianapolis Center
Mon 08:06:12 PM 40.2003 -83.4378 45° Northeast 186 214 7,100  Level Indianapolis Center
Mon 08:06:32 PM 40.2097 -83.4239 48° Northeast 188 216 7,100  Level Indianapolis Center
Mon 08:07:13 PM 40.2350 -83.3903 45° Northeast 186 214 7,100 -97 Level Indianapolis Center
Mon 08:07:34 PM 40.2461 -83.3756 45° Northeast 187 215 7,000  Descending Indianapolis Center
Mon 08:08:08 PM 40.2694 -83.3478 42° Northeast 182 209 7,100 -98 Climbing Indianapolis Center
Mon 08:08:35 PM 40.2847 -83.3286 44° Northeast 187 215 6,900  Descending Indianapolis Center
Mon 08:09:26 PM 40.3197 -83.2883 41° Northeast 181 208 7,100 49 Climbing Indianapolis Center
Mon 08:10:38 PM 40.3597 -83.2383 44° Northeast 186 214 7,000 -45 Descending Indianapolis Center
Mon 08:11:40 PM 40.3986 -83.1919 42° Northeast 186 214 7,000  Level Indianapolis Center
Mon 08:12:41 PM 40.4419 -83.1358 45° Northeast 186 214 7,000 49 Level Indianapolis Center
Mon 08:13:43 PM 40.4764 -83.0975 40° Northeast 187 215 7,100  Climbing Indianapolis Center
Mon 08:14:44 PM 40.5197 -83.0433 44° Northeast 187 215 7,000  Descending Indianapolis Center
Mon 08:15:46 PM 40.5569 -82.9947 45° Northeast 188 216 7,100 49 Climbing Indianapolis Center
Mon 08:16:47 PM 40.5942 -82.9461 45° Northeast 187 215 7,100  Level Indianapolis Center
Mon 08:17:49 PM 40.6325 -82.8969 44° Northeast 191 220 7,100 -49 Level Indianapolis Center
Mon 08:18:50 PM 40.6706 -82.8467 45° Northeast 192 221 7,000  Descending Indianapolis Center
Mon 08:19:52 PM 40.7075 -82.7958 46° Northeast 192 221 7,100  Climbing Indianapolis Center
Mon 08:20:53 PM 40.7458 -82.7475 44° Northeast 190 219 7,000 -244 Descending Indianapolis Center
Mon 08:21:55 PM 40.7858 -82.6958 44° Northeast 194 223 6,600 -387 Descending Indianapolis Center

Login

Don't have an account? Register now (free) for customized features, flight alerts, and more!